Time;durP1;ratioP1;P1;durP2;ratioP2;P2;SDS_P1;SDS_P2;PMS_P1;PMS_P2;Temp;Humidity;BMP_temperature;BMP_pressure;BME280_temperature;BME280_humidity;BME280_pressure;Samples;Min_cycle;Max_cycle;Signal;HPM_P1;HPM_P2
2021/05/19 00:02:08;;;;;;;1.65;0.80;;;;;;;20.66;35.81;101408.63;5033425;28;20170;-76
2021/05/19 00:04:34;;;;;;;2.00;0.70;;;;;;;20.67;35.41;101410.25;5033963;28;20056;-76
2021/05/19 00:06:59;;;;;;;0.68;0.52;;;;;;;20.65;35.61;101407.03;5032296;28;20033;-76
2021/05/19 00:09:25;;;;;;;3.22;1.00;;;;;;;20.64;35.62;101413.75;5033692;28;20033;-77
2021/05/19 00:11:51;;;;;;;16.27;1.77;;;;;;;20.57;35.51;101411.63;5032504;28;20108;-77
2021/05/19 00:14:19;;;;;;;2.60;0.80;;;;;;;20.52;35.55;101414.69;5033706;28;20473;-76
2021/05/19 00:16:47;;;;;;;0.88;0.75;;;;;;;20.44;35.67;101415.72;5033735;28;20025;-77
2021/05/19 00:19:13;;;;;;;1.52;0.90;;;;;;;20.49;35.68;101423.75;5033514;28;20033;-77
2021/05/19 00:21:39;;;;;;;0.82;0.80;;;;;;;20.47;35.60;101426.88;5033585;28;20112;-77
2021/05/19 00:24:06;;;;;;;1.77;0.93;;;;;;;20.34;35.79;101428.16;5033304;28;20068;-77
2021/05/19 00:26:32;;;;;;;1.67;0.85;;;;;;;20.12;36.13;101421.31;5033496;28;20026;-76
2021/05/19 00:28:58;;;;;;;1.35;0.85;;;;;;;19.77;36.77;101424.06;5033457;28;20088;-77
2021/05/19 00:31:26;;;;;;;0.88;0.70;;;;;;;19.74;36.66;101430.31;5033171;28;20091;-77
2021/05/19 00:33:52;;;;;;;1.80;0.75;;;;;;;19.61;36.94;101428.81;5033335;28;20033;-77
2021/05/19 00:36:18;;;;;;;1.90;1.00;;;;;;;19.53;37.27;101426.97;5033356;28;20388;-77
2021/05/19 00:38:44;;;;;;;3.13;1.38;;;;;;;19.44;37.38;101427.16;5033322;28;20384;-77
2021/05/19 00:41:12;;;;;;;0.93;0.80;;;;;;;19.54;37.04;101429.38;5033077;28;20025;-78
2021/05/19 00:43:38;;;;;;;2.55;1.90;;;;;;;19.54;37.17;101429.38;5033513;28;20116;-76
2021/05/19 00:46:04;;;;;;;2.03;1.42;;;;;;;19.56;36.90;101431.81;5032036;28;20559;-77
2021/05/19 00:48:29;;;;;;;2.03;1.30;;;;;;;19.44;37.27;101440.22;5033143;28;20030;-76
2021/05/19 00:50:55;;;;;;;1.98;1.40;;;;;;;19.46;37.17;101432.34;5033134;28;20035;-76
2021/05/19 00:53:21;;;;;;;3.70;1.50;;;;;;;19.49;37.20;101440.72;5033011;28;20036;-76
2021/05/19 00:55:46;;;;;;;2.22;1.30;;;;;;;19.41;37.30;101425.88;5033081;28;20030;-77
2021/05/19 00:58:12;;;;;;;3.42;1.73;;;;;;;19.38;37.21;101431.34;5033070;28;20431;-76
2021/05/19 01:00:38;;;;;;;2.00;1.80;;;;;;;19.46;37.15;101432.34;5032982;28;20037;-76
2021/05/19 01:03:04;;;;;;;2.45;2.00;;;;;;;19.31;37.47;101420.88;5033105;28;20395;-76
2021/05/19 01:05:38;;;;;;;2.28;1.90;;;;;;;19.40;37.40;101427.06;5033026;28;20502;-77
2021/05/19 01:10:49;;;;;;;3.28;2.20;;;;;;;19.33;37.38;101432.41;5033382;28;20087;-76
2021/05/19 01:13:16;;;;;;;3.55;1.73;;;;;;;19.33;37.29;101429.63;5032565;28;20487;-76
2021/05/19 01:15:42;;;;;;;2.80;2.15;;;;;;;19.34;37.24;101428.47;5032638;28;20122;-76
2021/05/19 01:18:08;;;;;;;1.65;1.48;;;;;;;19.31;37.31;101437.50;5033031;28;20052;-76
2021/05/19 01:20:34;;;;;;;4.20;1.92;;;;;;;19.20;37.53;101435.63;5032997;28;20030;-76
2021/05/19 01:23:01;;;;;;;3.55;1.92;;;;;;;19.23;37.65;101440.44;5032984;28;20025;-83
2021/05/19 01:25:27;;;;;;;2.33;1.65;;;;;;;19.21;37.44;101435.25;5033105;28;20079;-76
2021/05/19 01:27:59;;;;;;;3.38;1.77;;;;;;;19.25;37.25;101441.69;5032881;28;20033;-76
2021/05/19 01:30:25;;;;;;;3.47;1.70;;;;;;;19.12;37.49;101445.72;5032602;28;20026;-77
2021/05/19 01:32:51;;;;;;;2.08;1.25;;;;;;;19.17;37.22;101441.84;5032752;28;20083;-77
2021/05/19 01:35:17;;;;;;;1.95;1.40;;;;;;;19.16;37.20;101441.06;5032729;28;20468;-76
2021/05/19 01:37:45;;;;;;;3.92;1.95;;;;;;;19.16;37.23;101445.78;5032599;28;20029;-76
2021/05/19 01:40:13;;;;;;;2.20;1.42;;;;;;;19.11;37.16;101444.88;5032769;28;20025;-76
2021/05/19 01:42:40;;;;;;;1.90;1.35;;;;;;;19.12;37.37;101448.47;5032702;28;20395;-76
2021/05/19 01:45:09;;;;;;;5.78;2.00;;;;;;;18.90;37.57;101443.50;5032835;28;20065;-77
2021/05/19 01:47:48;;;;;;;2.55;1.52;;;;;;;18.92;37.51;101449.47;5032751;28;20033;-76
2021/05/19 01:50:17;;;;;;;3.90;1.60;;;;;;;18.81;37.67;101443.63;5032862;28;20029;-77
2021/05/19 01:52:44;;;;;;;2.67;1.67;;;;;;;18.59;38.00;101456.03;5032687;28;20071;-76
2021/05/19 01:55:11;;;;;;;2.53;1.90;;;;;;;18.68;37.86;101453.94;5032668;28;20044;-76
2021/05/19 01:57:37;;;;;;;2.42;1.80;;;;;;;18.73;37.67;101453.69;5032719;28;20083;-83
2021/05/19 02:00:05;;;;;;;4.97;2.67;;;;;;;18.68;37.64;101459.50;5032382;28;20025;-76
2021/05/19 02:02:31;;;;;;;3.05;2.08;;;;;;;18.71;37.69;101457.97;5032631;28;20476;-76
2021/05/19 02:04:59;;;;;;;3.88;2.30;;;;;;;18.71;37.61;101456.00;5032563;28;20056;-76
2021/05/19 02:07:25;;;;;;;3.20;2.28;;;;;;;18.64;37.76;101461.31;5032702;28;20444;-76
2021/05/19 02:09:51;;;;;;;3.20;2.00;;;;;;;18.58;38.10;101462.69;5032462;28;20108;-77
2021/05/19 02:12:17;;;;;;;4.07;2.03;;;;;;;18.60;38.00;101465.94;5031216;28;20064;-76
2021/05/19 02:14:43;;;;;;;3.58;1.95;;;;;;;18.56;37.77;101476.09;5032359;28;20055;-76
2021/05/19 02:17:09;;;;;;;3.40;2.28;;;;;;;18.58;37.68;101476.53;5032466;28;20511;-76
2021/05/19 02:19:35;;;;;;;3.38;2.50;;;;;;;18.60;37.83;101474.25;5032346;28;20679;-76
2021/05/19 02:22:01;;;;;;;2.95;2.15;;;;;;;18.63;37.72;101473.53;5032399;28;20026;-76
2021/05/19 02:24:27;;;;;;;5.28;3.22;;;;;;;18.53;37.96;101474.03;5032486;28;20029;-76
2021/05/19 02:26:53;;;;;;;4.00;3.42;;;;;;;18.56;37.82;101465.00;5035933;28;20029;-77
2021/05/19 02:29:19;;;;;;;6.78;2.67;;;;;;;18.57;37.95;101469.38;5036118;28;20582;-76
2021/05/19 02:31:44;;;;;;;4.53;2.53;;;;;;;18.41;38.31;101477.59;5035747;28;20061;-75
2021/05/19 02:34:12;;;;;;;3.03;2.67;;;;;;;18.52;37.99;101477.94;5035584;28;20071;-75
2021/05/19 02:36:38;;;;;;;3.78;2.67;;;;;;;18.43;38.25;101474.50;5035658;28;20075;-75
2021/05/19 02:39:08;;;;;;;3.85;2.80;;;;;;;18.36;38.26;101474.25;5035553;28;20079;-75
2021/05/19 02:41:34;;;;;;;5.50;3.38;;;;;;;18.37;38.24;101482.25;5035498;28;20442;-75
2021/05/19 02:43:59;;;;;;;7.60;3.17;;;;;;;18.28;38.29;101484.31;5035502;28;20104;-74
2021/05/19 02:46:25;;;;;;;4.47;2.65;;;;;;;18.02;39.02;101487.44;5035436;28;20108;-75
2021/05/19 02:48:51;;;;;;;5.05;2.75;;;;;;;17.81;39.59;101486.72;5035326;28;20021;-75
2021/05/19 02:51:19;;;;;;;5.10;3.08;;;;;;;17.91;39.28;101486.25;5035365;28;20030;-75
2021/05/19 02:53:45;;;;;;;4.20;2.83;;;;;;;17.91;39.07;101486.25;5035333;28;20167;-75
2021/05/19 02:56:11;;;;;;;4.43;3.28;;;;;;;17.63;39.58;101489.66;5035435;28;20053;-75
2021/05/19 02:58:36;;;;;;;3.25;2.90;;;;;;;17.88;38.98;101490.53;5033851;28;20033;-75
2021/05/19 03:01:02;;;;;;;4.43;3.50;;;;;;;17.75;39.25;101489.69;5035089;28;20025;-75
2021/05/19 03:03:28;;;;;;;5.03;3.20;;;;;;;17.89;39.05;101496.88;5035131;28;20021;-75
2021/05/19 03:05:54;;;;;;;5.05;3.70;;;;;;;17.49;40.11;101497.47;5033791;28;20175;-81
2021/05/19 03:08:19;;;;;;;6.40;3.42;;;;;;;17.79;39.30;101494.56;5035131;28;20033;-75
2021/05/19 03:10:45;;;;;;;4.78;3.50;;;;;;;17.84;39.36;101486.06;5035036;28;20699;-75
2021/05/19 03:13:12;;;;;;;5.32;3.60;;;;;;;17.78;39.42;101499.28;5034932;28;20079;-75
2021/05/19 03:15:37;;;;;;;5.13;3.97;;;;;;;17.83;39.33;101501.00;5034951;28;20450;-75
2021/05/19 03:18:03;;;;;;;4.95;4.03;;;;;;;17.81;39.37;101498.59;5034922;28;20053;-75
2021/05/19 03:20:29;;;;;;;8.05;4.65;;;;;;;17.74;39.64;101499.16;5034786;28;20042;-75
2021/05/19 03:22:55;;;;;;;7.55;3.90;;;;;;;17.53;39.93;101503.91;5033474;28;20044;-75
2021/05/19 03:25:21;;;;;;;7.18;4.20;;;;;;;17.73;39.51;101500.31;5034627;28;20028;-75
2021/05/19 03:27:46;;;;;;;6.30;3.90;;;;;;;17.69;39.46;101506.84;5034603;28;20088;-75
2021/05/19 03:30:15;;;;;;;5.80;4.13;;;;;;;17.70;39.76;101508.44;5034791;28;20419;-75
2021/05/19 03:32:41;;;;;;;4.97;4.07;;;;;;;17.77;39.43;101514.25;5033146;28;20491;-82
2021/05/19 03:35:08;;;;;;;6.45;4.45;;;;;;;17.55;39.90;101515.44;5033302;28;20554;-75
2021/05/19 03:37:35;;;;;;;9.13;5.65;;;;;;;17.72;39.56;101518.03;5032294;28;20026;-76
2021/05/19 03:40:01;;;;;;;6.15;5.20;;;;;;;17.70;39.64;101506.53;5034523;28;20026;-75
2021/05/19 03:42:27;;;;;;;6.30;4.45;;;;;;;17.80;39.23;101516.31;5034465;28;20025;-74
2021/05/19 03:44:52;;;;;;;5.60;4.88;;;;;;;17.63;39.92;101522.81;5033380;28;20369;-75
2021/05/19 03:47:18;;;;;;;15.32;6.18;;;;;;;17.77;39.38;101530.03;5033258;28;20029;-80
2021/05/19 03:49:44;;;;;;;6.25;5.30;;;;;;;17.80;39.32;101523.81;5034563;28;20433;-74
2021/05/19 03:52:10;;;;;;;8.50;5.03;;;;;;;17.81;39.40;101530.94;5032962;28;20124;-75
2021/05/19 03:54:36;;;;;;;6.43;4.65;;;;;;;17.73;39.60;101525.19;5033058;28;20111;-75
2021/05/19 03:57:04;;;;;;;6.20;4.70;;;;;;;17.79;39.16;101527.72;5034232;28;20498;-76
2021/05/19 03:59:30;;;;;;;6.22;4.57;;;;;;;17.68;39.67;101533.69;5034228;28;20464;-77
2021/05/19 04:01:58;;;;;;;6.10;4.95;;;;;;;17.33;40.20;101526.88;5034330;28;20025;-76
2021/05/19 04:04:24;;;;;;;6.78;5.13;;;;;;;17.38;40.04;101530.25;5033076;28;20087;-76
2021/05/19 04:06:49;;;;;;;7.38;4.78;;;;;;;17.55;39.69;101533.97;5034340;28;20101;-76
2021/05/19 04:09:15;;;;;;;5.78;4.32;;;;;;;17.23;40.51;101539.16;5034272;28;20472;-76
2021/05/19 04:11:41;;;;;;;8.82;4.60;;;;;;;17.30;40.29;101546.88;5034088;28;20033;-76
2021/05/19 04:14:07;;;;;;;5.38;3.90;;;;;;;17.37;40.28;101550.69;5034179;28;20036;-77
2021/05/19 04:16:33;;;;;;;11.68;4.57;;;;;;;17.43;40.07;101549.34;5034183;28;20029;-76
2021/05/19 04:18:59;;;;;;;7.88;4.72;;;;;;;17.41;40.10;101554.41;5032759;28;20494;-76
2021/05/19 04:21:25;;;;;;;11.25;4.45;;;;;;;17.40;40.06;101549.25;5032447;28;20120;-77
2021/05/19 04:23:50;;;;;;;16.77;5.40;;;;;;;17.57;39.67;101556.53;5033787;28;20087;-76
2021/05/19 04:26:16;;;;;;;15.52;5.63;;;;;;;17.35;40.17;101557.72;5033980;28;20021;-77
2021/05/19 04:28:44;;;;;;;13.80;5.55;;;;;;;17.44;39.69;101566.72;5033783;28;20030;-76
2021/05/19 04:31:10;;;;;;;6.03;3.70;;;;;;;17.28;40.24;101563.78;5033467;28;20045;-76
2021/05/19 04:33:35;;;;;;;7.25;3.95;;;;;;;17.40;39.89;101574.09;5032339;28;20495;-76
2021/05/19 04:36:01;;;;;;;7.95;4.10;;;;;;;17.36;40.03;101570.38;5033662;28;20444;-77
2021/05/19 04:38:26;;;;;;;15.57;4.93;;;;;;;17.38;39.84;101574.44;5033601;28;20075;-76
2021/05/19 04:40:52;;;;;;;20.65;5.47;;;;;;;17.30;39.98;101567.00;5035727;28;20029;-77
2021/05/19 04:43:19;;;;;;;9.60;3.65;;;;;;;17.43;39.67;101574.22;5033476;28;20045;-76
2021/05/19 04:45:45;;;;;;;10.20;3.90;;;;;;;17.29;40.03;101578.41;5033311;28;20026;-76
2021/05/19 04:48:11;;;;;;;14.57;5.32;;;;;;;17.33;39.83;101579.38;5033171;28;20105;-76
2021/05/19 04:50:38;;;;;;;25.98;7.35;;;;;;;17.38;39.99;101574.44;5033304;28;20032;-76
2021/05/19 04:53:04;;;;;;;5.43;3.20;;;;;;;17.39;39.65;101572.50;5033418;28;20120;-77
2021/05/19 04:55:30;;;;;;;19.85;4.85;;;;;;;17.48;39.52;101573.22;5033268;28;20036;-76
2021/05/19 04:57:57;;;;;;;20.42;5.57;;;;;;;17.54;39.45;101588.44;5033223;28;20037;-76
2021/05/19 05:00:23;;;;;;;16.83;4.75;;;;;;;17.63;39.16;101578.09;5033182;28;20037;-76
2021/05/19 05:02:49;;;;;;;27.42;7.28;;;;;;;17.62;39.20;101581.22;5033138;28;20490;-75
2021/05/19 05:05:15;;;;;;;16.77;5.00;;;;;;;17.58;39.54;101583.81;5032949;28;20033;-76
2021/05/19 05:07:41;;;;;;;12.45;4.32;;;;;;;17.52;39.40;101587.13;5033011;28;20427;-76
2021/05/19 05:10:09;;;;;;;6.13;3.33;;;;;;;17.50;39.22;101590.25;5033135;28;20391;-75
2021/05/19 05:12:34;;;;;;;8.40;4.20;;;;;;;17.36;40.19;101589.72;5032655;28;20443;-75
2021/05/19 05:15:00;;;;;;;6.20;3.75;;;;;;;17.50;39.78;101600.50;5032711;28;20033;-75
2021/05/19 05:17:26;;;;;;;8.25;4.00;;;;;;;17.26;40.28;101601.19;5032713;28;20068;-75
2021/05/19 05:19:51;;;;;;;12.68;4.10;;;;;;;17.20;40.31;101608.84;5032585;28;20126;-75
2021/05/19 05:22:17;;;;;;;16.65;4.88;;;;;;;17.57;39.32;101607.09;5033004;28;20030;-75
2021/05/19 05:24:43;;;;;;;7.60;2.95;;;;;;;17.62;39.44;101606.88;5031328;28;20025;-75
2021/05/19 05:27:08;;;;;;;12.95;4.40;;;;;;;17.57;39.61;101604.31;5032659;28;20461;-75
2021/05/19 05:29:34;;;;;;;9.20;3.55;;;;;;;17.57;39.54;101614.56;5032606;28;20399;-75
2021/05/19 05:32:00;;;;;;;29.75;7.22;;;;;;;17.53;39.86;101614.44;5032400;28;20042;-75
2021/05/19 05:34:25;;;;;;;14.10;4.53;;;;;;;17.72;39.53;101598.19;5032546;28;20021;-75
2021/05/19 05:36:51;;;;;;;6.75;3.17;;;;;;;17.71;39.66;101624.22;5032612;28;20387;-76
2021/05/19 05:39:18;;;;;;;17.65;4.43;;;;;;;17.80;39.84;101617.78;5030877;28;20029;-81
2021/05/19 05:41:44;;;;;;;28.15;7.30;;;;;;;18.00;39.45;101622.47;5032716;28;20120;-75
2021/05/19 05:44:10;;;;;;;12.73;4.00;;;;;;;18.19;39.14;101614.44;5032663;28;20112;-76
2021/05/19 05:46:35;;;;;;;11.75;3.55;;;;;;;18.39;38.84;101620.22;5027779;28;20034;-76
2021/05/19 05:49:01;;;;;;;20.13;5.50;;;;;;;18.60;38.97;101632.00;5023247;28;20068;-77
2021/05/19 05:51:27;;;;;;;14.35;4.47;;;;;;;18.74;39.02;101631.66;5027372;28;20037;-76
2021/05/19 05:53:53;;;;;;;7.43;3.88;;;;;;;18.82;39.14;101639.06;5019729;28;20388;-77
2021/05/19 05:56:20;;;;;;;30.70;5.97;;;;;;;18.74;38.94;101635.25;5020500;28;20087;-76
2021/05/19 05:58:46;;;;;;;5.45;2.85;;;;;;;18.95;38.49;101632.34;5023772;28;20451;-77
2021/05/19 06:01:11;;;;;;;10.77;2.75;;;;;;;19.19;38.08;101637.03;5030732;28;20065;-77
2021/05/19 06:03:37;;;;;;;5.20;2.90;;;;;;;19.26;37.95;101634.47;5035343;28;20471;-76
2021/05/19 06:06:04;;;;;;;64.45;11.57;;;;;;;19.14;38.21;101637.28;5035719;28;20030;-77
2021/05/19 06:08:29;;;;;;;6.45;3.25;;;;;;;19.54;37.56;101640.06;5034044;28;20493;-76
2021/05/19 06:10:56;;;;;;;17.83;5.47;;;;;;;19.45;37.67;101635.81;5035492;28;20112;-78
2021/05/19 06:13:22;;;;;;;29.58;6.57;;;;;;;19.63;37.60;101645.47;5034930;28;20076;-79
2021/05/19 06:15:48;;;;;;;28.77;6.45;;;;;;;19.63;37.50;101637.97;5036168;28;20033;-78
2021/05/19 06:18:14;;;;;;;6.65;3.53;;;;;;;19.86;36.95;101638.19;5034029;28;20029;-85
2021/05/19 06:20:39;;;;;;;13.75;3.95;;;;;;;19.88;37.05;101635.91;5034078;28;20120;-78
2021/05/19 06:23:05;;;;;;;17.73;4.80;;;;;;;19.73;37.62;101653.31;5033860;28;20103;-81
2021/05/19 06:25:30;;;;;;;21.38;4.93;;;;;;;20.05;36.91;101647.84;5049059;28;20042;-76
2021/05/19 06:27:56;;;;;;;40.70;9.43;;;;;;;20.01;37.18;101646.91;5033542;28;20033;-75
2021/05/19 06:30:22;;;;;;;33.10;5.63;;;;;;;19.94;37.24;101658.63;5033301;28;20030;-77
2021/05/19 06:32:47;;;;;;;25.73;8.27;;;;;;;19.98;37.29;101667.06;5033926;28;20120;-82
2021/05/19 06:35:13;;;;;;;12.90;3.95;;;;;;;19.76;37.59;101660.09;5033231;28;20117;-77
2021/05/19 06:37:39;;;;;;;13.93;3.60;;;;;;;20.15;36.92;101659.19;5029790;28;20394;-83
2021/05/19 06:40:06;;;;;;;11.57;3.15;;;;;;;20.33;36.80;101661.63;5029542;28;20036;-84
2021/05/19 06:42:31;;;;;;;22.30;5.03;;;;;;;20.34;36.83;101669.63;5040223;28;20068;-76
2021/05/19 06:44:57;;;;;;;24.00;5.97;;;;;;;20.23;36.79;101665.75;5032362;28;20117;-79
2021/05/19 06:47:23;;;;;;;12.88;4.90;;;;;;;20.23;36.89;101666.53;5027622;28;20030;-76
2021/05/19 06:49:50;;;;;;;50.92;10.30;;;;;;;20.42;36.95;101667.84;5026444;28;20488;-76
2021/05/19 06:52:16;;;;;;;23.38;5.57;;;;;;;20.23;37.50;101668.53;5022548;28;20036;-82
2021/05/19 06:54:42;;;;;;;12.57;4.47;;;;;;;20.68;36.67;101670.91;5028268;28;20451;-76
2021/05/19 06:57:07;;;;;;;11.27;3.13;;;;;;;20.58;36.68;101674.22;5035347;28;20518;-76
2021/05/19 06:59:33;;;;;;;15.35;4.45;;;;;;;20.72;36.59;101676.56;5034942;28;20108;-76
2021/05/19 07:01:58;;;;;;;8.02;3.75;;;;;;;20.83;36.33;101671.25;5035141;28;20084;-75
2021/05/19 07:04:24;;;;;;;21.92;6.35;;;;;;;20.95;36.27;101680.28;5034000;28;20475;-77
2021/05/19 07:06:50;;;;;;;22.33;5.85;;;;;;;21.03;36.21;101672.91;5033375;28;20060;-76
2021/05/19 07:09:16;;;;;;;13.65;3.78;;;;;;;20.87;36.66;101678.50;5031910;28;20444;-76
2021/05/19 07:11:41;;;;;;;28.90;6.10;;;;;;;21.08;36.27;101677.38;5033658;28;20033;-75
2021/05/19 07:14:14;;;;;;;8.73;3.65;;;;;;;21.29;35.81;101675.91;5035054;28;20036;-75
2021/05/19 07:16:46;;;;;;;31.48;6.85;;;;;;;21.33;35.96;101674.03;5034836;28;20037;-75
2021/05/19 07:19:12;;;;;;;17.85;5.25;;;;;;;21.45;35.76;101686.97;5034648;28;20044;-75
2021/05/19 07:21:37;;;;;;;15.95;3.85;;;;;;;21.52;35.79;101689.13;5034690;28;20029;-75
2021/05/19 07:24:03;;;;;;;8.50;3.60;;;;;;;21.51;35.96;101688.31;5034237;28;20032;-78
2021/05/19 07:26:29;;;;;;;9.75;2.83;;;;;;;21.56;35.97;101687.22;5034348;28;20025;-75
2021/05/19 07:28:55;;;;;;;7.80;3.47;;;;;;;21.54;35.87;101695.94;5034492;28;20078;-75
2021/05/19 07:31:20;;;;;;;17.17;5.20;;;;;;;21.68;35.72;101686.25;5034364;28;20049;-75
2021/05/19 07:33:47;;;;;;;12.73;4.45;;;;;;;21.32;36.32;101686.34;5034697;28;20357;-74
2021/05/19 07:36:13;;;;;;;28.85;6.32;;;;;;;21.57;35.83;101689.63;5032562;28;20021;-74
2021/05/19 07:38:38;;;;;;;25.55;5.40;;;;;;;21.78;35.99;101689.28;5017190;28;20103;-74
2021/05/19 07:41:04;;;;;;;22.92;5.43;;;;;;;22.12;35.59;101689.56;5018661;28;20029;-75
2021/05/19 07:43:29;;;;;;;15.15;4.78;;;;;;;22.18;35.43;101692.84;5016059;28;20025;-75
2021/05/19 07:45:57;;;;;;;8.20;2.60;;;;;;;22.42;34.95;101682.16;5016790;28;20483;-76
2021/05/19 07:48:24;;;;;;;10.68;3.13;;;;;;;22.40;34.86;101692.06;5017572;28;20080;-76
2021/05/19 07:50:50;;;;;;;11.52;3.95;;;;;;;22.39;35.08;101688.47;5016711;28;20061;-80
2021/05/19 07:53:15;;;;;;;8.82;3.33;;;;;;;22.58;34.91;101693.16;5018834;28;20029;-80
2021/05/19 07:55:56;;;;;;;11.02;2.88;;;;;;;22.58;34.96;101682.03;5017193;28;20399;-76
2021/05/19 07:58:32;;;;;;;13.93;4.45;;;;;;;22.45;35.32;101691.78;5017061;28;20526;-78
2021/05/19 08:01:23;;;;;;;11.38;3.25;;;;;;;22.36;35.29;101699.53;5022425;28;20384;-76
2021/05/19 08:03:51;;;;;;;14.30;3.25;;;;;;;22.61;34.62;101698.03;5031407;28;20026;-73
2021/05/19 08:06:17;;;;;;;14.63;3.33;;;;;;;22.93;34.16;101700.56;5032956;28;20017;-79
2021/05/19 08:08:43;;;;;;;18.02;4.10;;;;;;;23.09;34.36;101706.75;5035118;28;20079;-75
2021/05/19 08:11:09;;;;;;;12.82;2.70;;;;;;;23.05;34.51;101714.28;5034794;28;20029;-74
2021/05/19 08:13:39;;;;;;;12.70;3.15;;;;;;;22.95;34.47;101710.13;5034045;28;20057;-75
2021/05/19 08:16:08;;;;;;;16.17;4.28;;;;;;;23.22;34.27;101710.94;5033743;28;20029;-74
2021/05/19 08:18:34;;;;;;;12.60;3.40;;;;;;;23.36;33.70;101720.72;5034044;28;20026;-74
2021/05/19 08:21:00;;;;;;;14.18;2.58;;;;;;;23.28;33.83;101714.22;5032845;28;20037;-75
2021/05/19 08:23:25;;;;;;;15.63;3.15;;;;;;;23.65;33.15;101719.13;5032658;28;20017;-73
2021/05/19 08:25:51;;;;;;;9.15;3.17;;;;;;;23.70;32.92;101724.38;5033590;28;20387;-80
2021/05/19 08:28:16;;;;;;;7.45;3.00;;;;;;;23.99;32.18;101728.31;5033463;28;20021;-75
2021/05/19 08:30:42;;;;;;;11.98;3.88;;;;;;;23.83;32.27;101711.78;5031456;28;20067;-81
2021/05/19 08:33:07;;;;;;;9.38;1.80;;;;;;;23.80;32.48;101729.28;5033684;28;20021;-79
2021/05/19 08:35:33;;;;;;;12.18;3.08;;;;;;;24.32;31.20;101730.28;5032890;28;20487;-75
2021/05/19 08:37:59;;;;;;;17.13;3.15;;;;;;;23.82;32.61;101738.09;5031694;28;20475;-74
2021/05/19 08:40:24;;;;;;;35.85;6.15;;;;;;;24.13;31.70;101738.84;5032028;28;20396;-73
2021/05/19 08:42:50;;;;;;;4.47;2.42;;;;;;;24.10;31.29;101745.97;5032169;28;20061;-74
2021/05/19 08:45:16;;;;;;;10.02;2.60;;;;;;;24.04;31.88;101753.91;5032527;28;20446;-73
2021/05/19 08:47:42;;;;;;;8.35;2.20;;;;;;;24.27;31.47;101753.78;5032730;28;20026;-73
2021/05/19 08:50:10;;;;;;;17.40;4.53;;;;;;;24.26;31.85;101746.59;5032709;28;20028;-74
2021/05/19 08:52:40;;;;;;;7.90;2.28;;;;;;;24.63;31.44;101743.78;5037755;28;20553;-74
2021/05/19 08:55:11;;;;;;;10.65;2.58;;;;;;;24.81;31.41;101746.75;5040512;28;20056;-74
2021/05/19 08:57:40;;;;;;;5.70;1.70;;;;;;;24.98;31.00;101752.88;5032951;28;20032;-74
2021/05/19 09:00:08;;;;;;;15.75;2.28;;;;;;;25.05;30.20;101752.94;5034026;28;20017;-74
2021/05/19 09:02:35;;;;;;;8.63;1.88;;;;;;;24.46;30.90;101752.78;5053053;28;20053;-75
2021/05/19 09:05:00;;;;;;;15.05;3.15;;;;;;;24.66;30.42;101752.59;5041839;28;20030;-75
2021/05/19 09:07:26;;;;;;;4.93;1.67;;;;;;;24.90;30.37;101746.41;5039292;28;20387;-77
2021/05/19 09:09:52;;;;;;;21.80;2.97;;;;;;;24.98;30.27;101742.47;5035970;28;20083;-76
2021/05/19 09:12:18;;;;;;;12.10;3.10;;;;;;;24.70;30.51;101751.41;5032391;28;20044;-77
2021/05/19 09:15:04;;;;;;;8.45;1.80;;;;;;;24.76;30.69;101744.31;5031022;28;20126;-77
2021/05/19 09:17:32;;;;;;;4.05;1.52;;;;;;;25.29;29.73;101740.34;5015314;28;20037;-75
2021/05/19 09:19:57;;;;;;;11.75;2.60;;;;;;;25.36;29.31;101743.19;5015905;28;20044;-74
2021/05/19 09:22:28;;;;;;;9.57;1.67;;;;;;;25.51;28.85;101742.06;5015283;28;20033;-76
2021/05/19 09:24:54;;;;;;;10.38;2.03;;;;;;;24.88;28.97;101746.00;5013987;28;20117;-75
2021/05/19 09:27:20;;;;;;;6.82;1.90;;;;;;;24.78;29.52;101739.13;5015724;28;20038;-74
2021/05/19 09:29:50;;;;;;;7.47;2.35;;;;;;;25.59;28.56;101738.09;5016297;28;20030;-74
2021/05/19 09:32:18;;;;;;;6.38;1.38;;;;;;;26.16;27.52;101729.97;5015930;28;20041;-75
2021/05/19 09:34:50;;;;;;;14.73;3.20;;;;;;;26.31;27.50;101732.81;5014886;28;20105;-73
2021/05/19 09:37:29;;;;;;;5.45;1.88;;;;;;;26.13;26.64;101736.34;5032453;28;20036;-74
2021/05/19 09:40:10;;;;;;;14.43;2.65;;;;;;;26.51;26.18;101729.25;5032366;28;20114;-74
2021/05/19 09:42:36;;;;;;;5.20;1.40;;;;;;;26.77;25.96;101744.91;5018718;28;20373;-74
2021/05/19 09:45:29;;;;;;;4.53;1.15;;;;;;;26.58;25.49;101727.66;5012602;28;20076;-74
2021/05/19 09:47:57;;;;;;;6.90;1.52;;;;;;;26.74;25.67;101740.06;5031401;28;20458;-74
2021/05/19 09:50:37;;;;;;;8.25;2.05;;;;;;;26.94;25.22;101745.28;5032340;28;20104;-75
2021/05/19 09:53:11;;;;;;;11.15;2.22;;;;;;;27.06;25.72;101745.72;5032278;28;20029;-73
2021/05/19 09:55:50;;;;;;;3.53;1.08;;;;;;;26.92;25.22;101747.72;5032326;28;20113;-74
2021/05/19 09:58:38;;;;;;;4.68;1.23;;;;;;;26.47;25.83;101742.47;5032200;28;20136;-74
2021/05/19 10:01:07;;;;;;;5.82;1.42;;;;;;;27.30;25.44;101743.28;5032156;28;20048;-77
2021/05/19 10:03:35;;;;;;;16.13;2.40;;;;;;;27.64;24.96;101735.94;5032218;28;20100;-76
2021/05/19 10:08:43;;;;;;;10.35;2.28;;;;;;;28.12;25.01;101738.19;5032264;28;20109;-75
2021/05/19 10:11:09;;;;;;;3.40;1.52;;;;;;;28.18;24.45;101744.97;5032087;28;20032;-75
2021/05/19 10:13:36;;;;;;;4.55;1.50;;;;;;;28.46;24.00;101737.59;5032168;28;20502;-75
2021/05/19 10:16:07;;;;;;;8.00;2.55;;;;;;;28.70;24.27;101738.63;5031867;28;20033;-75
2021/05/19 10:18:54;;;;;;;3.65;1.23;;;;;;;28.73;23.64;101746.25;5032135;28;20029;-75
2021/05/19 10:21:22;;;;;;;4.70;1.30;;;;;;;28.48;23.66;101749.22;5031792;28;20400;-75
2021/05/19 10:24:14;;;;;;;6.43;1.65;;;;;;;27.87;23.60;101743.13;5031066;28;20036;-75
2021/05/19 10:27:19;;;;;;;4.90;1.83;;;;;;;27.78;23.39;101748.38;5032116;28;20028;-76
2021/05/19 10:29:45;;;;;;;7.60;2.20;;;;;;;27.90;23.88;101753.56;4951658;28;20139;-75
2021/05/19 10:32:26;;;;;;;10.00;1.98;;;;;;;27.69;23.89;101754.44;4951160;29;20043;-75
2021/05/19 10:35:00;;;;;;;10.40;2.05;;;;;;;27.18;24.49;101766.13;4997644;28;20420;-76
2021/05/19 10:37:35;;;;;;;24.15;4.22;;;;;;;27.25;24.46;101766.94;5031769;28;20095;-75
2021/05/19 10:40:06;;;;;;;8.93;1.90;;;;;;;27.27;24.42;101764.50;5031709;28;20030;-75
2021/05/19 10:42:38;;;;;;;6.10;2.28;;;;;;;27.41;24.14;101766.50;5031845;28;20436;-75
2021/05/19 10:45:14;;;;;;;9.13;1.98;;;;;;;27.52;23.89;101753.25;5031855;28;20359;-74
2021/05/19 10:47:45;;;;;;;4.90;2.13;;;;;;;27.48;24.05;101774.09;5034691;28;20025;-74
2021/05/19 10:50:22;;;;;;;9.30;1.77;;;;;;;27.49;23.91;101770.88;5035355;28;20500;-74
2021/05/19 10:58:37;;;;;;;10.00;2.08;;;;;;;27.97;25.23;101767.56;5035456;28;20079;-74
2021/05/19 11:01:05;;;;;;;10.70;3.20;;;;;;;27.57;25.07;101769.66;5035056;28;20072;-74
2021/05/19 11:03:31;;;;;;;7.15;1.55;;;;;;;27.20;24.91;101763.72;5034822;28;20025;-74
2021/05/19 11:05:56;;;;;;;9.25;1.98;;;;;;;27.41;24.89;101749.66;5035063;28;20121;-74
2021/05/19 11:08:29;;;;;;;17.48;2.97;;;;;;;28.04;23.70;101750.69;5034993;28;20034;-79
2021/05/19 11:11:18;;;;;;;4.13;1.40;;;;;;;28.10;23.18;101751.03;5035264;28;20511;-79
2021/05/19 11:14:03;;;;;;;10.25;2.38;;;;;;;27.95;22.56;101749.50;5035016;28;20112;-75
2021/05/19 11:16:48;;;;;;;7.03;1.35;;;;;;;27.61;22.46;101748.00;5022620;28;20563;-78
2021/05/19 11:19:31;;;;;;;6.25;1.23;;;;;;;28.27;23.18;101754.97;5045812;28;20041;-74
2021/05/19 11:21:59;;;;;;;5.47;1.60;;;;;;;28.23;23.28;101751.38;5040313;28;20037;-76
2021/05/19 11:24:27;;;;;;;6.82;1.40;;;;;;;28.04;22.91;101749.88;5035125;28;20025;-76
2021/05/19 11:26:53;;;;;;;5.18;1.58;;;;;;;28.58;22.52;101765.22;5034955;28;20430;-78
2021/05/19 11:29:19;;;;;;;3.53;1.23;;;;;;;28.19;22.86;101757.81;5034811;28;20044;-76
2021/05/19 11:31:50;;;;;;;7.88;2.45;;;;;;;27.94;22.47;101754.31;5034748;28;20499;-77
2021/05/19 11:34:35;;;;;;;5.07;1.35;;;;;;;27.70;23.12;101744.78;5017597;28;20022;-77
2021/05/19 11:37:03;;;;;;;7.15;1.52;;;;;;;27.85;22.73;101756.78;5015058;28;20038;-77